Terminal Aerodrome Forecast
Issued by NWS Pittsburgh, PA

Current Version | Previous Version | Graphics & Text | Print | Product List | Glossary On
Versions: 1 2 3 4 5 6 7 8 9 10 11 12 13 14 15 16 17 18 19 20 21 22 23 24 25 26 27 28 29
409
FTUS41 KPBZ 071358 AAA
TAFPIT
TAF AMD
KPIT 071358Z 0714/0818 16005KT P6SM BKN050
     FM071800 19008KT P6SM SCT050
     FM080200 16005KT P6SM BKN120
     FM081500 14005KT P6SM -RASN OVC025=

USA.gov is the U.S. government's official web portal to all federal, state and local government web resources and services.